sensor_id;sensor_type;location;lat;lon;timestamp;pressure;altitude;pressure_sealevel;temperature;humidity
58534;BME280;44109;52.398;7.024;2022-12-18T00:01:25;102678.94;;;-3.33;90.72
58534;BME280;44109;52.398;7.024;2022-12-18T00:03:55;102679.59;;;-3.49;90.77
58534;BME280;44109;52.398;7.024;2022-12-18T00:06:23;102678.53;;;-3.48;90.45
58534;BME280;44109;52.398;7.024;2022-12-18T00:08:53;102669.28;;;-3.59;90.00
58534;BME280;44109;52.398;7.024;2022-12-18T00:11:23;102668.63;;;-3.72;89.40
58534;BME280;44109;52.398;7.024;2022-12-18T00:13:54;102670.22;;;-3.83;88.61
58534;BME280;44109;52.398;7.024;2022-12-18T00:16:26;102677.09;;;-3.99;87.62
58534;BME280;44109;52.398;7.024;2022-12-18T00:18:55;102654.34;;;-4.35;86.56
58534;BME280;44109;52.398;7.024;2022-12-18T00:21:25;102682.31;;;-4.41;86.60
58534;BME280;44109;52.398;7.024;2022-12-18T00:23:53;102657.16;;;-4.66;85.98
58534;BME280;44109;52.398;7.024;2022-12-18T00:26:23;102664.75;;;-4.81;85.92
58534;BME280;44109;52.398;7.024;2022-12-18T00:28:52;102690.56;;;-4.79;85.19
58534;BME280;44109;52.398;7.024;2022-12-18T00:31:24;102684.84;;;-4.96;84.12
58534;BME280;44109;52.398;7.024;2022-12-18T00:33:53;102696.56;;;-5.02;85.03
58534;BME280;44109;52.398;7.024;2022-12-18T00:36:24;102689.16;;;-5.13;84.73
58534;BME280;44109;52.398;7.024;2022-12-18T00:38:53;102682.78;;;-5.25;84.12
58534;BME280;44109;52.398;7.024;2022-12-18T00:41:23;102661.47;;;-5.47;84.10
58534;BME280;44109;52.398;7.024;2022-12-18T00:44:10;102644.16;;;-5.71;85.00
58534;BME280;44109;52.398;7.024;2022-12-18T00:46:42;102674.41;;;-5.49;85.46
58534;BME280;44109;52.398;7.024;2022-12-18T00:49:10;102674.41;;;-5.55;85.60
58534;BME280;44109;52.398;7.024;2022-12-18T00:51:37;102670.72;;;-5.61;85.48
58534;BME280;44109;52.398;7.024;2022-12-18T00:54:05;102666.59;;;-5.77;84.38
58534;BME280;44109;52.398;7.024;2022-12-18T00:56:35;102673.72;;;-5.82;84.26
58534;BME280;44109;52.398;7.024;2022-12-18T00:59:03;102658.38;;;-5.89;84.86
58534;BME280;44109;52.398;7.024;2022-12-18T01:01:31;102662.72;;;-5.88;84.78
58534;BME280;44109;52.398;7.024;2022-12-18T01:04:01;102661.50;;;-5.92;85.04
58534;BME280;44109;52.398;7.024;2022-12-18T01:06:30;102667.72;;;-5.91;85.46
58534;BME280;44109;52.398;7.024;2022-12-18T01:08:57;102667.16;;;-5.93;86.10
58534;BME280;44109;52.398;7.024;2022-12-18T01:11:25;102663.81;;;-5.95;85.52
58534;BME280;44109;52.398;7.024;2022-12-18T01:13:54;102653.09;;;-6.15;85.60
58534;BME280;44109;52.398;7.024;2022-12-18T01:16:22;102661.38;;;-6.10;85.01
58534;BME280;44109;52.398;7.024;2022-12-18T01:18:52;102633.19;;;-6.34;85.19
58534;BME280;44109;52.398;7.024;2022-12-18T01:21:23;102645.66;;;-6.33;85.04
58534;BME280;44109;52.398;7.024;2022-12-18T01:23:52;102667.25;;;-6.26;85.26
58534;BME280;44109;52.398;7.024;2022-12-18T01:26:21;102664.78;;;-6.34;84.47
58534;BME280;44109;52.398;7.024;2022-12-18T01:28:49;102643.41;;;-6.49;86.00
58534;BME280;44109;52.398;7.024;2022-12-18T01:31:18;102672.25;;;-6.36;86.65
58534;BME280;44109;52.398;7.024;2022-12-18T01:33:48;102651.50;;;-6.43;86.29
58534;BME280;44109;52.398;7.024;2022-12-18T01:36:19;102635.53;;;-6.64;86.27
58534;BME280;44109;52.398;7.024;2022-12-18T01:38:50;102652.16;;;-6.54;86.45
58534;BME280;44109;52.398;7.024;2022-12-18T01:41:19;102673.94;;;-6.49;85.53
58534;BME280;44109;52.398;7.024;2022-12-18T01:43:50;102658.16;;;-6.65;85.16
58534;BME280;44109;52.398;7.024;2022-12-18T01:46:22;102617.09;;;-6.94;85.10
58534;BME280;44109;52.398;7.024;2022-12-18T01:48:53;102654.44;;;-6.77;84.44
58534;BME280;44109;52.398;7.024;2022-12-18T01:51:27;102682.47;;;-6.72;83.84
58534;BME280;44109;52.398;7.024;2022-12-18T01:53:58;102665.88;;;-6.75;84.38
58534;BME280;44109;52.398;7.024;2022-12-18T01:56:26;102671.25;;;-6.75;84.63
58534;BME280;44109;52.398;7.024;2022-12-18T01:58:58;102676.66;;;-6.75;84.42
58534;BME280;44109;52.398;7.024;2022-12-18T02:01:30;102672.91;;;-6.74;84.88
58534;BME280;44109;52.398;7.024;2022-12-18T02:04:19;102676.03;;;-6.71;86.06
58534;BME280;44109;52.398;7.024;2022-12-18T02:06:51;102644.06;;;-6.87;86.76
58534;BME280;44109;52.398;7.024;2022-12-18T02:09:34;102650.31;;;-6.80;86.61
58534;BME280;44109;52.398;7.024;2022-12-18T02:12:14;102672.06;;;-6.68;86.34
58534;BME280;44109;52.398;7.024;2022-12-18T02:14:51;102681.44;;;-6.71;85.87
58534;BME280;44109;52.398;7.024;2022-12-18T02:17:32;102681.22;;;-6.82;84.76
58534;BME280;44109;52.398;7.024;2022-12-18T02:20:11;102680.81;;;-6.93;84.54
58534;BME280;44109;52.398;7.024;2022-12-18T02:22:53;102679.16;;;-6.94;85.46
58534;BME280;44109;52.398;7.024;2022-12-18T02:25:51;102681.41;;;-6.97;84.35
58534;BME280;44109;52.398;7.024;2022-12-18T02:28:31;102671.03;;;-7.07;83.91
58534;BME280;44109;52.398;7.024;2022-12-18T02:31:06;102676.03;;;-7.17;83.56
58534;BME280;44109;52.398;7.024;2022-12-18T02:33:39;102669.34;;;-7.34;82.90
58534;BME280;44109;52.398;7.024;2022-12-18T02:36:09;102673.06;;;-7.42;82.48
58534;BME280;44109;52.398;7.024;2022-12-18T02:38:41;102657.28;;;-7.52;82.53
58534;BME280;44109;52.398;7.024;2022-12-18T02:41:13;102663.06;;;-7.55;81.99
58534;BME280;44109;52.398;7.024;2022-12-18T02:43:46;102668.00;;;-7.65;81.81
58534;BME280;44109;52.398;7.024;2022-12-18T02:46:25;102674.63;;;-7.74;81.39
58534;BME280;44109;52.398;7.024;2022-12-18T02:49:04;102664.88;;;-7.75;81.46
58534;BME280;44109;52.398;7.024;2022-12-18T02:51:45;102661.53;;;-7.77;81.52
58534;BME280;44109;52.398;7.024;2022-12-18T02:54:39;102661.34;;;-7.76;81.97
58534;BME280;44109;52.398;7.024;2022-12-18T02:57:24;102653.50;;;-7.71;82.44
58534;BME280;44109;52.398;7.024;2022-12-18T03:00:04;102653.06;;;-7.68;82.70
58534;BME280;44109;52.398;7.024;2022-12-18T03:02:39;102651.25;;;-7.67;82.88
58534;BME280;44109;52.398;7.024;2022-12-18T03:05:17;102613.66;;;-7.88;82.78
58534;BME280;44109;52.398;7.024;2022-12-18T03:07:55;102567.16;;;-8.17;82.97
58534;BME280;44109;52.398;7.024;2022-12-18T03:10:28;102654.53;;;-7.65;82.84
58534;BME280;44109;52.398;7.024;2022-12-18T03:13:04;102673.19;;;-7.63;83.05
58534;BME280;44109;52.398;7.024;2022-12-18T03:15:37;102662.00;;;-7.67;82.77
58534;BME280;44109;52.398;7.024;2022-12-18T03:18:12;102674.22;;;-7.71;82.85
58534;BME280;44109;52.398;7.024;2022-12-18T03:20:46;102674.63;;;-7.74;82.45
58534;BME280;44109;52.398;7.024;2022-12-18T03:23:20;102645.97;;;-7.88;82.17
58534;BME280;44109;52.398;7.024;2022-12-18T03:25:56;102668.78;;;-7.84;81.93
58534;BME280;44109;52.398;7.024;2022-12-18T03:28:31;102662.53;;;-7.92;81.50
58534;BME280;44109;52.398;7.024;2022-12-18T03:31:04;102650.25;;;-8.07;80.91
58534;BME280;44109;52.398;7.024;2022-12-18T03:33:39;102645.31;;;-8.04;81.82
58534;BME280;44109;52.398;7.024;2022-12-18T03:36:11;102655.50;;;-7.93;81.67
58534;BME280;44109;52.398;7.024;2022-12-18T03:38:42;102611.25;;;-8.18;81.65
58534;BME280;44109;52.398;7.024;2022-12-18T03:41:16;102640.53;;;-8.02;81.48
58534;BME280;44109;52.398;7.024;2022-12-18T03:43:59;102641.72;;;-8.11;80.90
58534;BME280;44109;52.398;7.024;2022-12-18T03:46:41;102643.78;;;-8.13;81.26
58534;BME280;44109;52.398;7.024;2022-12-18T03:49:23;102634.28;;;-8.09;81.47
58534;BME280;44109;52.398;7.024;2022-12-18T03:52:02;102586.75;;;-8.43;81.98
58534;BME280;44109;52.398;7.024;2022-12-18T03:54:33;102642.34;;;-8.09;81.49
58534;BME280;44109;52.398;7.024;2022-12-18T03:57:07;102634.22;;;-8.22;81.83
58534;BME280;44109;52.398;7.024;2022-12-18T03:59:41;102613.47;;;-8.35;81.40
58534;BME280;44109;52.398;7.024;2022-12-18T04:02:11;102620.94;;;-8.30;82.50
58534;BME280;44109;52.398;7.024;2022-12-18T04:04:40;102638.78;;;-8.23;82.13
58534;BME280;44109;52.398;7.024;2022-12-18T04:07:10;102638.59;;;-8.14;81.61
58534;BME280;44109;52.398;7.024;2022-12-18T04:09:41;102634.47;;;-8.17;81.17
58534;BME280;44109;52.398;7.024;2022-12-18T04:12:12;102621.34;;;-8.33;81.12
58534;BME280;44109;52.398;7.024;2022-12-18T04:14:41;102629.25;;;-8.25;80.92
58534;BME280;44109;52.398;7.024;2022-12-18T04:17:09;102626.72;;;-8.33;80.69
58534;BME280;44109;52.398;7.024;2022-12-18T04:19:36;102605.94;;;-8.53;80.99
58534;BME280;44109;52.398;7.024;2022-12-18T04:22:04;102625.06;;;-8.34;80.99
58534;BME280;44109;52.398;7.024;2022-12-18T04:24:32;102580.63;;;-8.65;81.06
58534;BME280;44109;52.398;7.024;2022-12-18T04:26:59;102605.16;;;-8.47;80.74
58534;BME280;44109;52.398;7.024;2022-12-18T04:29:27;102618.44;;;-8.38;81.52
58534;BME280;44109;52.398;7.024;2022-12-18T04:31:56;102622.38;;;-8.34;81.66
58534;BME280;44109;52.398;7.024;2022-12-18T04:34:23;102542.69;;;-8.77;82.74
58534;BME280;44109;52.398;7.024;2022-12-18T04:36:51;102614.97;;;-8.19;82.89
58534;BME280;44109;52.398;7.024;2022-12-18T04:39:18;102619.97;;;-8.16;82.87
58534;BME280;44109;52.398;7.024;2022-12-18T04:41:46;102634.69;;;-8.12;82.22
58534;BME280;44109;52.398;7.024;2022-12-18T04:44:14;102628.06;;;-8.16;81.83
58534;BME280;44109;52.398;7.024;2022-12-18T04:46:41;102624.72;;;-8.18;81.70
58534;BME280;44109;52.398;7.024;2022-12-18T04:49:11;102634.22;;;-8.22;81.53
58534;BME280;44109;52.398;7.024;2022-12-18T04:51:38;102629.69;;;-8.22;81.49
58534;BME280;44109;52.398;7.024;2022-12-18T04:54:06;102601.25;;;-8.44;81.38
58534;BME280;44109;52.398;7.024;2022-12-18T04:56:34;102628.59;;;-8.27;81.31
58534;BME280;44109;52.398;7.024;2022-12-18T04:59:01;102598.97;;;-8.40;81.03
58534;BME280;44109;52.398;7.024;2022-12-18T05:01:29;102609.53;;;-8.32;81.03
58534;BME280;44109;52.398;7.024;2022-12-18T05:03:56;102608.69;;;-8.33;80.81
58534;BME280;44109;52.398;7.024;2022-12-18T05:06:25;102595.88;;;-8.37;80.72
58534;BME280;44109;52.398;7.024;2022-12-18T05:08:53;102598.56;;;-8.37;80.57
58534;BME280;44109;52.398;7.024;2022-12-18T05:11:20;102565.38;;;-8.58;80.75
58534;BME280;44109;52.398;7.024;2022-12-18T05:13:48;102594.16;;;-8.45;80.41
58534;BME280;44109;52.398;7.024;2022-12-18T05:16:16;102604.34;;;-8.40;80.48
58534;BME280;44109;52.398;7.024;2022-12-18T05:18:44;102608.91;;;-8.41;80.38
58534;BME280;44109;52.398;7.024;2022-12-18T05:21:11;102618.38;;;-8.45;80.29
58534;BME280;44109;52.398;7.024;2022-12-18T05:23:40;102622.72;;;-8.51;80.15
58534;BME280;44109;52.398;7.024;2022-12-18T05:26:08;102639.09;;;-8.46;80.02
58534;BME280;44109;52.398;7.024;2022-12-18T05:28:41;102640.34;;;-8.48;79.93
58534;BME280;44109;52.398;7.024;2022-12-18T05:31:08;102647.97;;;-8.52;79.87
58534;BME280;44109;52.398;7.024;2022-12-18T05:33:37;102645.66;;;-8.55;80.19
58534;BME280;44109;52.398;7.024;2022-12-18T05:36:07;102639.44;;;-8.55;79.97
58534;BME280;44109;52.398;7.024;2022-12-18T05:38:37;102634.66;;;-8.60;79.77
58534;BME280;44109;52.398;7.024;2022-12-18T05:41:07;102640.25;;;-8.61;79.83
58534;BME280;44109;52.398;7.024;2022-12-18T05:43:37;102639.41;;;-8.62;79.75
58534;BME280;44109;52.398;7.024;2022-12-18T05:46:07;102627.84;;;-8.62;80.03
58534;BME280;44109;52.398;7.024;2022-12-18T05:48:39;102639.66;;;-8.57;80.53
58534;BME280;44109;52.398;7.024;2022-12-18T05:51:07;102637.59;;;-8.55;80.43
58534;BME280;44109;52.398;7.024;2022-12-18T05:53:37;102636.06;;;-8.64;80.27
58534;BME280;44109;52.398;7.024;2022-12-18T05:56:08;102612.56;;;-8.83;80.17
58534;BME280;44109;52.398;7.024;2022-12-18T05:58:37;102634.31;;;-8.78;79.67
58534;BME280;44109;52.398;7.024;2022-12-18T06:01:07;102658.44;;;-8.63;79.75
58534;BME280;44109;52.398;7.024;2022-12-18T06:03:36;102653.25;;;-8.65;79.54
58534;BME280;44109;52.398;7.024;2022-12-18T06:06:11;102648.09;;;-8.66;79.47
58534;BME280;44109;52.398;7.024;2022-12-18T06:08:40;102553.28;;;-9.31;78.81
58534;BME280;44109;52.398;7.024;2022-12-18T06:11:10;102619.97;;;-8.92;79.30
58534;BME280;44109;52.398;7.024;2022-12-18T06:13:38;102632.56;;;-8.92;79.27
58534;BME280;44109;52.398;7.024;2022-12-18T06:16:06;102665.56;;;-8.77;79.18
58534;BME280;44109;52.398;7.024;2022-12-18T06:18:34;102614.94;;;-9.23;79.27
58534;BME280;44109;52.398;7.024;2022-12-18T06:21:03;102693.94;;;-8.75;79.24
58534;BME280;44109;52.398;7.024;2022-12-18T06:23:31;102635.97;;;-9.05;80.03
58534;BME280;44109;52.398;7.024;2022-12-18T06:26:03;102677.81;;;-8.75;80.09
58534;BME280;44109;52.398;7.024;2022-12-18T06:28:33;102688.22;;;-8.65;80.04
58534;BME280;44109;52.398;7.024;2022-12-18T06:31:02;102696.28;;;-8.65;79.77
58534;BME280;44109;52.398;7.024;2022-12-18T06:33:31;102688.59;;;-8.68;79.82
58534;BME280;44109;52.398;7.024;2022-12-18T06:36:00;102653.47;;;-8.95;79.96
58534;BME280;44109;52.398;7.024;2022-12-18T06:38:29;102672.78;;;-8.84;79.37
58534;BME280;44109;52.398;7.024;2022-12-18T06:40:57;102686.94;;;-8.69;79.83
58534;BME280;44109;52.398;7.024;2022-12-18T06:43:25;102686.13;;;-8.70;79.63
58534;BME280;44109;52.398;7.024;2022-12-18T06:45:59;102677.59;;;-8.73;79.49
58534;BME280;44109;52.398;7.024;2022-12-18T06:48:27;102677.81;;;-8.75;79.50
58534;BME280;44109;52.398;7.024;2022-12-18T06:50:55;102617.94;;;-9.11;79.48
58534;BME280;44109;52.398;7.024;2022-12-18T06:53:22;102677.22;;;-8.70;79.92
58534;BME280;44109;52.398;7.024;2022-12-18T06:55:50;102672.72;;;-8.63;80.24
58534;BME280;44109;52.398;7.024;2022-12-18T06:58:18;102653.88;;;-8.63;80.64
58534;BME280;44109;52.398;7.024;2022-12-18T07:00:46;102656.41;;;-8.55;80.46
58534;BME280;44109;52.398;7.024;2022-12-18T07:03:15;102651.03;;;-8.55;80.49
58534;BME280;44109;52.398;7.024;2022-12-18T07:05:42;102653.59;;;-8.47;81.21
58534;BME280;44109;52.398;7.024;2022-12-18T07:08:10;102644.69;;;-8.40;81.60
58534;BME280;44109;52.398;7.024;2022-12-18T07:10:41;102639.78;;;-8.30;82.38
58534;BME280;44109;52.398;7.024;2022-12-18T07:13:09;102639.59;;;-8.22;82.84
58534;BME280;44109;52.398;7.024;2022-12-18T07:15:37;102631.34;;;-8.14;84.00
58534;BME280;44109;52.398;7.024;2022-12-18T07:18:04;102582.81;;;-8.34;84.66
58534;BME280;44109;52.398;7.024;2022-12-18T07:20:33;102629.16;;;-7.91;85.09
58534;BME280;44109;52.398;7.024;2022-12-18T07:23:01;102612.00;;;-7.89;85.45
58534;BME280;44109;52.398;7.024;2022-12-18T07:25:29;102614.53;;;-7.75;86.16
58534;BME280;44109;52.398;7.024;2022-12-18T07:27:57;102544.38;;;-8.14;86.76
58534;BME280;44109;52.398;7.024;2022-12-18T07:30:25;102620.78;;;-7.61;87.01
58534;BME280;44109;52.398;7.024;2022-12-18T07:32:52;102632.41;;;-7.54;87.09
58534;BME280;44109;52.398;7.024;2022-12-18T07:35:20;102625.56;;;-7.50;87.68
58534;BME280;44109;52.398;7.024;2022-12-18T07:37:49;102624.75;;;-7.37;87.54
58534;BME280;44109;52.398;7.024;2022-12-18T07:40:16;102622.06;;;-7.30;88.06
58534;BME280;44109;52.398;7.024;2022-12-18T07:42:44;102627.03;;;-7.27;88.45
58534;BME280;44109;52.398;7.024;2022-12-18T07:45:12;102624.56;;;-7.16;88.76
58534;BME280;44109;52.398;7.024;2022-12-18T07:47:39;102623.31;;;-7.13;88.34
58534;BME280;44109;52.398;7.024;2022-12-18T07:50:08;102608.81;;;-7.25;88.32
58534;BME280;44109;52.398;7.024;2022-12-18T07:52:36;102641.59;;;-7.02;89.49
58534;BME280;44109;52.398;7.024;2022-12-18T07:55:05;102621.66;;;-7.01;89.15
58534;BME280;44109;52.398;7.024;2022-12-18T07:57:33;102634.09;;;-6.86;89.32
58534;BME280;44109;52.398;7.024;2022-12-18T08:00:01;102633.28;;;-6.80;89.13
58534;BME280;44109;52.398;7.024;2022-12-18T08:02:30;102634.53;;;-6.76;89.30
58534;BME280;44109;52.398;7.024;2022-12-18T08:04:58;102579.34;;;-7.07;89.51
58534;BME280;44109;52.398;7.024;2022-12-18T08:07:26;102641.75;;;-6.64;89.48
58534;BME280;44109;52.398;7.024;2022-12-18T08:09:53;102635.72;;;-6.59;89.17
58534;BME280;44109;52.398;7.024;2022-12-18T08:12:22;102634.47;;;-6.50;89.00
58534;BME280;44109;52.398;7.024;2022-12-18T08:14:50;102626.16;;;-6.42;89.08
58534;BME280;44109;52.398;7.024;2022-12-18T08:17:19;102629.03;;;-6.36;89.35
58534;BME280;44109;52.398;7.024;2022-12-18T08:19:46;102626.13;;;-6.28;89.65
58534;BME280;44109;52.398;7.024;2022-12-18T08:22:14;102625.25;;;-6.16;89.69
58534;BME280;44109;52.398;7.024;2022-12-18T08:24:41;102629.59;;;-6.08;89.97
58534;BME280;44109;52.398;7.024;2022-12-18T08:27:09;102640.13;;;-6.00;89.92
58534;BME280;44109;52.398;7.024;2022-12-18T08:29:38;102636.59;;;-5.94;90.28
58534;BME280;44109;52.398;7.024;2022-12-18T08:32:06;102621.75;;;-5.84;89.99
58534;BME280;44109;52.398;7.024;2022-12-18T08:34:34;102627.75;;;-5.76;90.09
58534;BME280;44109;52.398;7.024;2022-12-18T08:37:01;102624.97;;;-5.63;90.58
58534;BME280;44109;52.398;7.024;2022-12-18T08:39:29;102613.88;;;-5.54;90.95
58534;BME280;44109;52.398;7.024;2022-12-18T08:41:57;102605.31;;;-5.45;91.07
58534;BME280;44109;52.398;7.024;2022-12-18T08:44:43;102601.91;;;-5.33;91.06
58534;BME280;44109;52.398;7.024;2022-12-18T08:47:10;102588.88;;;-5.18;92.16
58534;BME280;44109;52.398;7.024;2022-12-18T08:49:38;102590.25;;;-5.09;92.63
58534;BME280;44109;52.398;7.024;2022-12-18T08:52:06;102589.22;;;-5.08;92.36
58534;BME280;44109;52.398;7.024;2022-12-18T08:54:34;102586.84;;;-4.98;92.11
58534;BME280;44109;52.398;7.024;2022-12-18T08:57:02;102596.78;;;-4.92;91.95
58534;BME280;44109;52.398;7.024;2022-12-18T08:59:30;102600.25;;;-4.85;91.38
58534;BME280;44109;52.398;7.024;2022-12-18T09:01:59;102595.66;;;-4.84;90.71
58534;BME280;44109;52.398;7.024;2022-12-18T09:04:26;102593.50;;;-4.75;91.65
58534;BME280;44109;52.398;7.024;2022-12-18T09:06:55;102581.03;;;-4.76;90.14
58534;BME280;44109;52.398;7.024;2022-12-18T09:09:23;102600.28;;;-4.66;90.88
58534;BME280;44109;52.398;7.024;2022-12-18T09:11:50;102605.84;;;-4.61;91.82
58534;BME280;44109;52.398;7.024;2022-12-18T09:14:18;102598.19;;;-4.46;91.61
58534;BME280;44109;52.398;7.024;2022-12-18T09:16:45;102601.44;;;-4.37;91.22
58534;BME280;44109;52.398;7.024;2022-12-18T09:19:14;102606.69;;;-4.24;91.91
58534;BME280;44109;52.398;7.024;2022-12-18T09:21:42;102621.59;;;-4.15;91.99
58534;BME280;44109;52.398;7.024;2022-12-18T09:24:12;102618.34;;;-4.05;91.78
58534;BME280;44109;52.398;7.024;2022-12-18T09:26:41;102618.50;;;-4.00;92.27
58534;BME280;44109;52.398;7.024;2022-12-18T09:29:08;102616.09;;;-3.90;92.96
58534;BME280;44109;52.398;7.024;2022-12-18T09:31:36;102608.78;;;-3.89;92.19
58534;BME280;44109;52.398;7.024;2022-12-18T09:34:05;102606.28;;;-3.72;93.23
58534;BME280;44109;52.398;7.024;2022-12-18T09:36:34;102596.75;;;-3.63;93.11
58534;BME280;44109;52.398;7.024;2022-12-18T09:39:02;102593.97;;;-3.45;92.78
58534;BME280;44109;52.398;7.024;2022-12-18T09:41:42;102588.91;;;-3.41;93.95
58534;BME280;44109;52.398;7.024;2022-12-18T09:44:31;102585.66;;;-3.20;93.89
58534;BME280;44109;52.398;7.024;2022-12-18T09:47:07;102571.00;;;-3.19;94.31
58534;BME280;44109;52.398;7.024;2022-12-18T09:49:42;102571.16;;;-3.02;94.88
58534;BME280;44109;52.398;7.024;2022-12-18T09:52:16;102531.00;;;-3.23;94.25
58534;BME280;44109;52.398;7.024;2022-12-18T09:54:52;102568.78;;;-2.87;94.34
58534;BME280;44109;52.398;7.024;2022-12-18T09:57:24;102571.03;;;-2.72;94.73
58534;BME280;44109;52.398;7.024;2022-12-18T09:59:56;102567.13;;;-2.64;94.35
58534;BME280;44109;52.398;7.024;2022-12-18T10:02:30;102558.16;;;-2.53;94.26
58534;BME280;44109;52.398;7.024;2022-12-18T10:05:07;102558.63;;;-2.56;93.86
58534;BME280;44109;52.398;7.024;2022-12-18T10:07:47;102579.00;;;-2.30;95.50
58534;BME280;44109;52.398;7.024;2022-12-18T10:10:30;102584.09;;;-2.34;94.40
58534;BME280;44109;52.398;7.024;2022-12-18T10:13:12;102560.97;;;-2.48;94.06
58534;BME280;44109;52.398;7.024;2022-12-18T10:19:01;102556.28;;;-2.24;93.02
58534;BME280;44109;52.398;7.024;2022-12-18T10:21:47;102551.38;;;-2.27;92.67
58534;BME280;44109;52.398;7.024;2022-12-18T10:24:35;102543.44;;;-2.28;92.70
58534;BME280;44109;52.398;7.024;2022-12-18T10:27:13;102475.47;;;-2.57;92.53
58534;BME280;44109;52.398;7.024;2022-12-18T10:29:44;102529.66;;;-2.10;91.65
58534;BME280;44109;52.398;7.024;2022-12-18T10:32:17;102523.75;;;-2.07;91.38
58534;BME280;44109;52.398;7.024;2022-12-18T10:34:48;102485.09;;;-2.09;91.82
58534;BME280;44109;52.398;7.024;2022-12-18T10:37:19;102471.00;;;-2.06;92.41
58534;BME280;44109;52.398;7.024;2022-12-18T10:40:10;102501.56;;;-1.70;92.32
58534;BME280;44109;52.398;7.024;2022-12-18T10:42:39;102488.31;;;-1.67;92.23
58534;BME280;44109;52.398;7.024;2022-12-18T10:45:10;102492.69;;;-1.49;92.27
58534;BME280;44109;52.398;7.024;2022-12-18T10:47:42;102503.06;;;-1.46;91.84
58534;BME280;44109;52.398;7.024;2022-12-18T10:50:19;102490.19;;;-1.34;92.10
58534;BME280;44109;52.398;7.024;2022-12-18T10:52:55;102484.34;;;-1.25;91.27
58534;BME280;44109;52.398;7.024;2022-12-18T10:55:31;102483.59;;;-1.21;91.85
58534;BME280;44109;52.398;7.024;2022-12-18T10:58:16;102473.34;;;-1.14;91.35
58534;BME280;44109;52.398;7.024;2022-12-18T11:01:09;102473.03;;;-1.17;90.88
58534;BME280;44109;52.398;7.024;2022-12-18T11:03:40;102468.34;;;-1.00;90.59
58534;BME280;44109;52.398;7.024;2022-12-18T11:06:11;102423.91;;;-1.44;90.76
58534;BME280;44109;52.398;7.024;2022-12-18T11:08:41;102472.41;;;-0.86;90.23
58534;BME280;44109;52.398;7.024;2022-12-18T11:11:20;102458.81;;;-1.03;89.49
58534;BME280;44109;52.398;7.024;2022-12-18T11:13:58;102471.47;;;-0.91;90.50
58534;BME280;44109;52.398;7.024;2022-12-18T11:16:32;102448.88;;;-0.92;89.64
58534;BME280;44109;52.398;7.024;2022-12-18T11:19:17;102447.69;;;-0.79;91.38
58534;BME280;44109;52.398;7.024;2022-12-18T11:21:50;102441.28;;;-0.68;90.90
58534;BME280;44109;52.398;7.024;2022-12-18T11:24:21;102442.13;;;-0.67;88.99
58534;BME280;44109;52.398;7.024;2022-12-18T11:26:56;102440.00;;;-0.60;90.17
58534;BME280;44109;52.398;7.024;2022-12-18T11:29:31;102445.84;;;-0.52;90.03
58534;BME280;44109;52.398;7.024;2022-12-18T11:32:23;102429.50;;;-0.73;88.95
58534;BME280;44109;52.398;7.024;2022-12-18T11:35:02;102446.72;;;-0.46;88.43
58534;BME280;44109;52.398;7.024;2022-12-18T11:37:38;102442.53;;;-0.32;89.56
58534;BME280;44109;52.398;7.024;2022-12-18T11:40:14;102438.94;;;-0.32;88.86
58534;BME280;44109;52.398;7.024;2022-12-18T11:42:51;102400.31;;;-0.51;87.66
58534;BME280;44109;52.398;7.024;2022-12-18T11:45:27;102431.69;;;-0.27;88.99
58534;BME280;44109;52.398;7.024;2022-12-18T11:48:01;102417.72;;;-0.30;87.88
58534;BME280;44109;52.398;7.024;2022-12-18T11:50:38;102411.94;;;-0.34;88.26
58534;BME280;44109;52.398;7.024;2022-12-18T11:53:12;102399.19;;;-0.28;88.31
58534;BME280;44109;52.398;7.024;2022-12-18T11:55:49;102406.03;;;-0.26;88.22
58534;BME280;44109;52.398;7.024;2022-12-18T11:58:46;102390.00;;;-0.22;87.92
58534;BME280;44109;52.398;7.024;2022-12-18T12:01:28;102398.03;;;-0.05;86.92
58534;BME280;44109;52.398;7.024;2022-12-18T12:07:15;102392.50;;;-0.15;87.26
58534;BME280;44109;52.398;7.024;2022-12-18T12:10:00;102406.81;;;-0.03;87.75
58534;BME280;44109;52.398;7.024;2022-12-18T12:12:45;102395.16;;;0.07;87.33
58534;BME280;44109;52.398;7.024;2022-12-18T12:15:29;102389.34;;;-0.02;86.10
58534;BME280;44109;52.398;7.024;2022-12-18T12:18:17;102371.16;;;0.09;87.88
58534;BME280;44109;52.398;7.024;2022-12-18T12:21:01;102370.69;;;0.17;88.06
58534;BME280;44109;52.398;7.024;2022-12-18T12:23:41;102356.44;;;0.10;86.80
58534;BME280;44109;52.398;7.024;2022-12-18T12:26:21;102354.56;;;0.15;87.13
58534;BME280;44109;52.398;7.024;2022-12-18T12:29:16;102346.38;;;0.15;87.47
58534;BME280;44109;52.398;7.024;2022-12-18T12:32:02;102341.47;;;0.17;85.99
58534;BME280;44109;52.398;7.024;2022-12-18T12:34:45;102341.81;;;0.26;86.03
58534;BME280;44109;52.398;7.024;2022-12-18T12:37:29;102333.41;;;0.33;87.08
58534;BME280;44109;52.398;7.024;2022-12-18T12:40:12;102326.28;;;0.32;87.23
58534;BME280;44109;52.398;7.024;2022-12-18T12:42:48;102319.53;;;0.39;87.74
58534;BME280;44109;52.398;7.024;2022-12-18T12:45:45;102310.50;;;0.39;86.15
58534;BME280;44109;52.398;7.024;2022-12-18T12:48:31;102319.03;;;0.47;86.39
58534;BME280;44109;52.398;7.024;2022-12-18T12:51:12;102312.75;;;0.47;86.59
58534;BME280;44109;52.398;7.024;2022-12-18T12:53:43;102307.84;;;0.49;86.63
58534;BME280;44109;52.398;7.024;2022-12-18T12:56:15;102304.44;;;0.32;85.03
58534;BME280;44109;52.398;7.024;2022-12-18T12:58:52;102305.19;;;0.59;86.77
58534;BME280;44109;52.398;7.024;2022-12-18T13:01:30;102296.13;;;0.59;86.56
58534;BME280;44109;52.398;7.024;2022-12-18T13:04:17;102305.50;;;0.73;87.20
58534;BME280;44109;52.398;7.024;2022-12-18T13:06:58;102303.81;;;0.67;85.85
58534;BME280;44109;52.398;7.024;2022-12-18T13:09:32;102298.13;;;0.73;86.00
58534;BME280;44109;52.398;7.024;2022-12-18T13:12:03;102289.66;;;0.70;85.71
58534;BME280;44109;52.398;7.024;2022-12-18T13:15:12;102292.72;;;0.84;87.02
58534;BME280;44109;52.398;7.024;2022-12-18T13:17:47;102288.34;;;0.83;86.35
58534;BME280;44109;52.398;7.024;2022-12-18T13:20:16;102293.81;;;0.83;86.21
58534;BME280;44109;52.398;7.024;2022-12-18T13:22:45;102297.03;;;0.74;86.13
58534;BME280;44109;52.398;7.024;2022-12-18T13:25:28;102296.25;;;0.84;85.90